Live Oak, Texas
Current Conditions -  °F | °C
As of 2:58 AM on Monday 20 Oct 2014 (Local Time) from KRND Reporting Station
Overcast Overcast  
Wind Chill: 67°   Ceiling: 5500
Heat Index: 67°   Visibility: 10mi
Dew Point: 62°   Wind: 3mph
Humidity: 83%   Direction: 100°E
Pressure: 30.03"   Gusts: NA
Location:  29.56°N, 98.34°W
Report Text: KRND 200758Z AUTO 10003KT 10SM OVC055 20/17 A3003 RMK AO2 SLP162 T01950166
Loading
Personal Weather Stations






























Interactive Weather Map
Tropical Storm Tracking
New forecast layout! Learn more

10-Day Weather Forecast

Advertisements
Track Severe Weather on mobile